sensor_id;sensor_type;location;lat;lon;timestamp;P1;durP1;ratioP1;P2;durP2;ratioP2
15848;SDS011;8024;48.708;9.394;2022-09-09T00:00:52;0.97;;;0.67;;
15848;SDS011;8024;48.708;9.394;2022-09-09T00:03:26;1.90;;;0.80;;
15848;SDS011;8024;48.708;9.394;2022-09-09T00:05:58;2.60;;;0.67;;
15848;SDS011;8024;48.708;9.394;2022-09-09T00:08:32;3.37;;;0.77;;
15848;SDS011;8024;48.708;9.394;2022-09-09T00:11:05;2.93;;;1.07;;
15848;SDS011;8024;48.708;9.394;2022-09-09T00:13:37;0.97;;;0.80;;
15848;SDS011;8024;48.708;9.394;2022-09-09T00:16:12;0.80;;;0.63;;
15848;SDS011;8024;48.708;9.394;2022-09-09T00:18:48;2.40;;;0.87;;
15848;SDS011;8024;48.708;9.394;2022-09-09T00:21:23;4.40;;;0.70;;
15848;SDS011;8024;48.708;9.394;2022-09-09T00:23:57;3.10;;;1.30;;
15848;SDS011;8024;48.708;9.394;2022-09-09T00:26:27;1.77;;;0.70;;
15848;SDS011;8024;48.708;9.394;2022-09-09T00:29:00;3.43;;;0.93;;
15848;SDS011;8024;48.708;9.394;2022-09-09T00:31:35;1.20;;;0.70;;
15848;SDS011;8024;48.708;9.394;2022-09-09T00:34:05;3.50;;;1.10;;
15848;SDS011;8024;48.708;9.394;2022-09-09T00:36:38;1.80;;;1.00;;
15848;SDS011;8024;48.708;9.394;2022-09-09T00:39:08;1.13;;;0.60;;
15848;SDS011;8024;48.708;9.394;2022-09-09T00:41:51;2.30;;;0.60;;
15848;SDS011;8024;48.708;9.394;2022-09-09T00:44:36;9.90;;;1.90;;
15848;SDS011;8024;48.708;9.394;2022-09-09T00:47:07;1.43;;;0.90;;
15848;SDS011;8024;48.708;9.394;2022-09-09T00:49:46;1.60;;;0.80;;
15848;SDS011;8024;48.708;9.394;2022-09-09T00:52:23;2.13;;;0.83;;
15848;SDS011;8024;48.708;9.394;2022-09-09T00:55:00;1.37;;;0.53;;
15848;SDS011;8024;48.708;9.394;2022-09-09T00:57:32;1.80;;;0.90;;
15848;SDS011;8024;48.708;9.394;2022-09-09T01:00:16;2.07;;;1.00;;
15848;SDS011;8024;48.708;9.394;2022-09-09T01:02:49;2.17;;;0.93;;
15848;SDS011;8024;48.708;9.394;2022-09-09T01:05:29;1.93;;;0.80;;
15848;SDS011;8024;48.708;9.394;2022-09-09T01:08:01;1.63;;;0.73;;
15848;SDS011;8024;48.708;9.394;2022-09-09T01:10:34;3.27;;;0.73;;
15848;SDS011;8024;48.708;9.394;2022-09-09T01:13:08;1.37;;;0.73;;
15848;SDS011;8024;48.708;9.394;2022-09-09T01:15:44;3.13;;;1.10;;
15848;SDS011;8024;48.708;9.394;2022-09-09T01:18:13;3.63;;;0.93;;
15848;SDS011;8024;48.708;9.394;2022-09-09T01:20:44;4.30;;;0.80;;
15848;SDS011;8024;48.708;9.394;2022-09-09T01:23:27;1.73;;;0.93;;
15848;SDS011;8024;48.708;9.394;2022-09-09T01:26:09;2.40;;;0.70;;
15848;SDS011;8024;48.708;9.394;2022-09-09T01:28:46;1.53;;;0.93;;
15848;SDS011;8024;48.708;9.394;2022-09-09T01:31:15;1.90;;;0.90;;
15848;SDS011;8024;48.708;9.394;2022-09-09T01:33:45;4.07;;;1.17;;
15848;SDS011;8024;48.708;9.394;2022-09-09T01:36:13;4.57;;;0.90;;
15848;SDS011;8024;48.708;9.394;2022-09-09T01:38:45;3.57;;;0.60;;
15848;SDS011;8024;48.708;9.394;2022-09-09T01:41:14;0.93;;;0.60;;
15848;SDS011;8024;48.708;9.394;2022-09-09T01:43:41;1.97;;;0.60;;
15848;SDS011;8024;48.708;9.394;2022-09-09T01:46:08;0.40;;;0.40;;
15848;SDS011;8024;48.708;9.394;2022-09-09T01:48:37;1.43;;;0.77;;
15848;SDS011;8024;48.708;9.394;2022-09-09T01:51:04;1.63;;;0.63;;
15848;SDS011;8024;48.708;9.394;2022-09-09T01:53:33;1.43;;;0.70;;
15848;SDS011;8024;48.708;9.394;2022-09-09T01:56:04;0.43;;;0.43;;
15848;SDS011;8024;48.708;9.394;2022-09-09T01:58:41;1.30;;;0.70;;
15848;SDS011;8024;48.708;9.394;2022-09-09T02:01:17;1.30;;;0.53;;
15848;SDS011;8024;48.708;9.394;2022-09-09T02:03:55;2.40;;;0.70;;
15848;SDS011;8024;48.708;9.394;2022-09-09T02:06:26;3.70;;;0.90;;
15848;SDS011;8024;48.708;9.394;2022-09-09T02:08:56;2.33;;;1.23;;
15848;SDS011;8024;48.708;9.394;2022-09-09T02:11:26;1.10;;;0.60;;
15848;SDS011;8024;48.708;9.394;2022-09-09T02:13:57;2.33;;;1.00;;
15848;SDS011;8024;48.708;9.394;2022-09-09T02:16:28;1.80;;;0.60;;
15848;SDS011;8024;48.708;9.394;2022-09-09T02:19:01;5.70;;;0.97;;
15848;SDS011;8024;48.708;9.394;2022-09-09T02:21:32;2.27;;;0.90;;
15848;SDS011;8024;48.708;9.394;2022-09-09T02:24:02;1.40;;;0.60;;
15848;SDS011;8024;48.708;9.394;2022-09-09T02:26:34;4.10;;;0.80;;
15848;SDS011;8024;48.708;9.394;2022-09-09T02:29:07;3.63;;;0.63;;
15848;SDS011;8024;48.708;9.394;2022-09-09T02:31:38;1.33;;;0.60;;
15848;SDS011;8024;48.708;9.394;2022-09-09T02:34:07;2.87;;;0.70;;
15848;SDS011;8024;48.708;9.394;2022-09-09T02:36:37;4.40;;;1.20;;
15848;SDS011;8024;48.708;9.394;2022-09-09T02:39:06;1.13;;;0.70;;
15848;SDS011;8024;48.708;9.394;2022-09-09T02:41:36;1.93;;;0.70;;
15848;SDS011;8024;48.708;9.394;2022-09-09T02:44:08;2.57;;;0.67;;
15848;SDS011;8024;48.708;9.394;2022-09-09T02:46:44;2.17;;;0.50;;
15848;SDS011;8024;48.708;9.394;2022-09-09T02:49:37;5.47;;;0.90;;
15848;SDS011;8024;48.708;9.394;2022-09-09T02:52:12;2.20;;;0.70;;
15848;SDS011;8024;48.708;9.394;2022-09-09T02:54:41;1.43;;;0.80;;
15848;SDS011;8024;48.708;9.394;2022-09-09T02:57:10;1.80;;;0.80;;
15848;SDS011;8024;48.708;9.394;2022-09-09T02:59:42;1.47;;;0.70;;
15848;SDS011;8024;48.708;9.394;2022-09-09T03:02:11;2.03;;;0.90;;
15848;SDS011;8024;48.708;9.394;2022-09-09T03:04:38;1.97;;;0.50;;
15848;SDS011;8024;48.708;9.394;2022-09-09T03:07:06;1.00;;;0.60;;
15848;SDS011;8024;48.708;9.394;2022-09-09T03:09:34;4.57;;;0.73;;
15848;SDS011;8024;48.708;9.394;2022-09-09T03:12:02;2.53;;;0.60;;
15848;SDS011;8024;48.708;9.394;2022-09-09T03:14:29;3.90;;;0.90;;
15848;SDS011;8024;48.708;9.394;2022-09-09T03:16:58;4.27;;;0.80;;
15848;SDS011;8024;48.708;9.394;2022-09-09T03:19:26;3.03;;;0.80;;
15848;SDS011;8024;48.708;9.394;2022-09-09T03:21:55;1.00;;;0.90;;
15848;SDS011;8024;48.708;9.394;2022-09-09T03:24:22;5.23;;;1.10;;
15848;SDS011;8024;48.708;9.394;2022-09-09T03:26:49;2.20;;;1.00;;
15848;SDS011;8024;48.708;9.394;2022-09-09T03:29:17;2.07;;;1.30;;
15848;SDS011;8024;48.708;9.394;2022-09-09T03:31:44;1.90;;;1.10;;
15848;SDS011;8024;48.708;9.394;2022-09-09T03:34:13;4.13;;;0.97;;
15848;SDS011;8024;48.708;9.394;2022-09-09T03:36:40;3.47;;;1.13;;
15848;SDS011;8024;48.708;9.394;2022-09-09T03:39:07;3.43;;;1.33;;
15848;SDS011;8024;48.708;9.394;2022-09-09T03:41:35;2.27;;;1.27;;
15848;SDS011;8024;48.708;9.394;2022-09-09T03:44:02;3.07;;;1.10;;
15848;SDS011;8024;48.708;9.394;2022-09-09T03:46:29;5.70;;;1.43;;
15848;SDS011;8024;48.708;9.394;2022-09-09T03:48:57;3.73;;;1.40;;
15848;SDS011;8024;48.708;9.394;2022-09-09T03:51:25;8.50;;;1.50;;
15848;SDS011;8024;48.708;9.394;2022-09-09T03:53:52;2.47;;;0.90;;
15848;SDS011;8024;48.708;9.394;2022-09-09T03:56:21;4.17;;;1.10;;
15848;SDS011;8024;48.708;9.394;2022-09-09T03:58:48;5.03;;;1.00;;
15848;SDS011;8024;48.708;9.394;2022-09-09T04:01:16;2.50;;;0.87;;
15848;SDS011;8024;48.708;9.394;2022-09-09T04:03:43;2.00;;;1.20;;
15848;SDS011;8024;48.708;9.394;2022-09-09T04:06:11;2.20;;;0.73;;
15848;SDS011;8024;48.708;9.394;2022-09-09T04:08:41;1.53;;;0.93;;
15848;SDS011;8024;48.708;9.394;2022-09-09T04:11:08;2.77;;;0.90;;
15848;SDS011;8024;48.708;9.394;2022-09-09T04:13:36;1.57;;;1.00;;
15848;SDS011;8024;48.708;9.394;2022-09-09T04:16:05;2.53;;;1.60;;
15848;SDS011;8024;48.708;9.394;2022-09-09T04:18:50;3.20;;;1.10;;
15848;SDS011;8024;48.708;9.394;2022-09-09T04:21:18;6.07;;;1.77;;
15848;SDS011;8024;48.708;9.394;2022-09-09T04:23:47;2.10;;;1.27;;
15848;SDS011;8024;48.708;9.394;2022-09-09T04:26:14;4.27;;;0.90;;
15848;SDS011;8024;48.708;9.394;2022-09-09T04:28:41;3.13;;;1.40;;
15848;SDS011;8024;48.708;9.394;2022-09-09T04:31:10;3.33;;;1.10;;
15848;SDS011;8024;48.708;9.394;2022-09-09T04:33:40;4.73;;;1.83;;
15848;SDS011;8024;48.708;9.394;2022-09-09T04:36:07;2.53;;;1.10;;
15848;SDS011;8024;48.708;9.394;2022-09-09T04:38:35;3.67;;;1.13;;
15848;SDS011;8024;48.708;9.394;2022-09-09T04:41:03;3.37;;;1.23;;
15848;SDS011;8024;48.708;9.394;2022-09-09T04:43:31;1.77;;;1.07;;
15848;SDS011;8024;48.708;9.394;2022-09-09T04:45:58;2.17;;;0.90;;
15848;SDS011;8024;48.708;9.394;2022-09-09T04:48:26;2.23;;;1.23;;
15848;SDS011;8024;48.708;9.394;2022-09-09T04:50:53;2.00;;;1.10;;
15848;SDS011;8024;48.708;9.394;2022-09-09T04:53:21;2.20;;;1.10;;
15848;SDS011;8024;48.708;9.394;2022-09-09T04:55:50;1.40;;;1.00;;
15848;SDS011;8024;48.708;9.394;2022-09-09T04:58:19;2.30;;;1.40;;
15848;SDS011;8024;48.708;9.394;2022-09-09T05:00:48;1.20;;;1.03;;
15848;SDS011;8024;48.708;9.394;2022-09-09T05:03:16;2.17;;;0.83;;
15848;SDS011;8024;48.708;9.394;2022-09-09T05:05:44;1.30;;;0.83;;
15848;SDS011;8024;48.708;9.394;2022-09-09T05:08:11;1.97;;;1.23;;
15848;SDS011;8024;48.708;9.394;2022-09-09T05:10:38;1.70;;;1.20;;
15848;SDS011;8024;48.708;9.394;2022-09-09T05:13:06;1.80;;;1.17;;
15848;SDS011;8024;48.708;9.394;2022-09-09T05:15:35;1.40;;;0.80;;
15848;SDS011;8024;48.708;9.394;2022-09-09T05:18:02;3.43;;;1.00;;
15848;SDS011;8024;48.708;9.394;2022-09-09T05:20:29;2.87;;;0.93;;
15848;SDS011;8024;48.708;9.394;2022-09-09T05:22:57;2.10;;;0.80;;
15848;SDS011;8024;48.708;9.394;2022-09-09T05:25:24;2.40;;;1.00;;
15848;SDS011;8024;48.708;9.394;2022-09-09T05:27:51;1.17;;;0.70;;
15848;SDS011;8024;48.708;9.394;2022-09-09T05:30:19;0.80;;;0.50;;
15848;SDS011;8024;48.708;9.394;2022-09-09T05:32:49;2.43;;;0.87;;
15848;SDS011;8024;48.708;9.394;2022-09-09T05:35:16;0.83;;;0.80;;
15848;SDS011;8024;48.708;9.394;2022-09-09T05:37:44;6.03;;;0.93;;
15848;SDS011;8024;48.708;9.394;2022-09-09T05:40:11;1.70;;;0.90;;
15848;SDS011;8024;48.708;9.394;2022-09-09T05:42:38;4.13;;;1.00;;
15848;SDS011;8024;48.708;9.394;2022-09-09T05:45:06;2.20;;;0.70;;
15848;SDS011;8024;48.708;9.394;2022-09-09T05:47:34;2.70;;;0.87;;
15848;SDS011;8024;48.708;9.394;2022-09-09T05:50:03;2.50;;;1.00;;
15848;SDS011;8024;48.708;9.394;2022-09-09T05:52:34;0.67;;;0.67;;
15848;SDS011;8024;48.708;9.394;2022-09-09T05:55:01;0.67;;;0.67;;
15848;SDS011;8024;48.708;9.394;2022-09-09T05:57:29;1.80;;;0.93;;
15848;SDS011;8024;48.708;9.394;2022-09-09T05:59:56;2.93;;;0.80;;
15848;SDS011;8024;48.708;9.394;2022-09-09T06:02:24;2.90;;;0.60;;
15848;SDS011;8024;48.708;9.394;2022-09-09T06:04:51;1.73;;;0.80;;
15848;SDS011;8024;48.708;9.394;2022-09-09T06:07:22;2.67;;;0.80;;
15848;SDS011;8024;48.708;9.394;2022-09-09T06:09:49;3.67;;;1.07;;
15848;SDS011;8024;48.708;9.394;2022-09-09T06:12:16;0.77;;;0.60;;
15848;SDS011;8024;48.708;9.394;2022-09-09T06:14:43;1.67;;;0.73;;
15848;SDS011;8024;48.708;9.394;2022-09-09T06:17:11;4.17;;;1.00;;
15848;SDS011;8024;48.708;9.394;2022-09-09T06:19:38;0.80;;;0.80;;
15848;SDS011;8024;48.708;9.394;2022-09-09T06:22:05;3.60;;;0.90;;
15848;SDS011;8024;48.708;9.394;2022-09-09T06:24:33;2.83;;;0.77;;
15848;SDS011;8024;48.708;9.394;2022-09-09T06:27:01;2.23;;;0.80;;
15848;SDS011;8024;48.708;9.394;2022-09-09T06:29:28;2.93;;;0.77;;
15848;SDS011;8024;48.708;9.394;2022-09-09T06:31:55;2.50;;;0.90;;
15848;SDS011;8024;48.708;9.394;2022-09-09T06:34:23;7.93;;;1.23;;
15848;SDS011;8024;48.708;9.394;2022-09-09T06:36:50;2.37;;;1.00;;
15848;SDS011;8024;48.708;9.394;2022-09-09T06:39:17;6.37;;;0.83;;
15848;SDS011;8024;48.708;9.394;2022-09-09T06:41:46;2.00;;;0.80;;
15848;SDS011;8024;48.708;9.394;2022-09-09T06:44:13;2.20;;;0.73;;
15848;SDS011;8024;48.708;9.394;2022-09-09T06:46:41;2.50;;;0.80;;
15848;SDS011;8024;48.708;9.394;2022-09-09T06:49:12;2.53;;;1.13;;
15848;SDS011;8024;48.708;9.394;2022-09-09T06:51:40;3.53;;;1.07;;
15848;SDS011;8024;48.708;9.394;2022-09-09T06:54:08;1.57;;;0.80;;
15848;SDS011;8024;48.708;9.394;2022-09-09T06:56:36;2.50;;;0.67;;
15848;SDS011;8024;48.708;9.394;2022-09-09T06:59:07;2.77;;;1.10;;
15848;SDS011;8024;48.708;9.394;2022-09-09T07:01:36;2.87;;;0.70;;
15848;SDS011;8024;48.708;9.394;2022-09-09T07:04:05;3.50;;;1.27;;
15848;SDS011;8024;48.708;9.394;2022-09-09T07:06:34;3.03;;;1.00;;
15848;SDS011;8024;48.708;9.394;2022-09-09T07:09:03;2.87;;;0.90;;
15848;SDS011;8024;48.708;9.394;2022-09-09T07:11:32;3.27;;;1.03;;
15848;SDS011;8024;48.708;9.394;2022-09-09T07:14:02;5.20;;;1.63;;
15848;SDS011;8024;48.708;9.394;2022-09-09T07:16:31;3.43;;;1.30;;
15848;SDS011;8024;48.708;9.394;2022-09-09T07:18:58;3.97;;;0.97;;
15848;SDS011;8024;48.708;9.394;2022-09-09T07:21:27;4.00;;;1.17;;
15848;SDS011;8024;48.708;9.394;2022-09-09T07:23:56;3.17;;;0.60;;
15848;SDS011;8024;48.708;9.394;2022-09-09T07:26:24;5.43;;;1.43;;
15848;SDS011;8024;48.708;9.394;2022-09-09T07:28:53;3.60;;;0.97;;
15848;SDS011;8024;48.708;9.394;2022-09-09T07:31:21;2.90;;;0.70;;
15848;SDS011;8024;48.708;9.394;2022-09-09T07:33:51;2.30;;;1.00;;
15848;SDS011;8024;48.708;9.394;2022-09-09T07:36:19;3.20;;;0.97;;
15848;SDS011;8024;48.708;9.394;2022-09-09T07:38:48;2.67;;;1.10;;
15848;SDS011;8024;48.708;9.394;2022-09-09T07:41:18;2.43;;;0.73;;
15848;SDS011;8024;48.708;9.394;2022-09-09T07:43:47;1.10;;;0.97;;
15848;SDS011;8024;48.708;9.394;2022-09-09T07:46:16;3.03;;;0.70;;
15848;SDS011;8024;48.708;9.394;2022-09-09T07:48:45;2.47;;;0.93;;
15848;SDS011;8024;48.708;9.394;2022-09-09T07:51:18;1.50;;;0.57;;
15848;SDS011;8024;48.708;9.394;2022-09-09T07:53:47;2.30;;;0.70;;
15848;SDS011;8024;48.708;9.394;2022-09-09T07:56:17;2.90;;;0.60;;
15848;SDS011;8024;48.708;9.394;2022-09-09T07:58:46;2.67;;;0.50;;
15848;SDS011;8024;48.708;9.394;2022-09-09T08:01:14;1.50;;;0.60;;
15848;SDS011;8024;48.708;9.394;2022-09-09T08:03:43;1.07;;;0.47;;
15848;SDS011;8024;48.708;9.394;2022-09-09T08:06:11;2.73;;;0.60;;
15848;SDS011;8024;48.708;9.394;2022-09-09T08:08:40;2.93;;;0.80;;
15848;SDS011;8024;48.708;9.394;2022-09-09T08:11:09;1.13;;;0.80;;
15848;SDS011;8024;48.708;9.394;2022-09-09T08:13:39;2.07;;;0.90;;
15848;SDS011;8024;48.708;9.394;2022-09-09T08:16:08;2.20;;;0.70;;
15848;SDS011;8024;48.708;9.394;2022-09-09T08:18:36;2.53;;;0.60;;
15848;SDS011;8024;48.708;9.394;2022-09-09T08:21:04;2.90;;;0.77;;
15848;SDS011;8024;48.708;9.394;2022-09-09T08:23:33;2.70;;;0.60;;
15848;SDS011;8024;48.708;9.394;2022-09-09T08:26:06;3.03;;;1.17;;
15848;SDS011;8024;48.708;9.394;2022-09-09T08:28:35;1.27;;;0.40;;
15848;SDS011;8024;48.708;9.394;2022-09-09T08:31:07;2.00;;;0.50;;
15848;SDS011;8024;48.708;9.394;2022-09-09T08:33:35;2.83;;;0.67;;
15848;SDS011;8024;48.708;9.394;2022-09-09T08:36:04;2.43;;;0.77;;
15848;SDS011;8024;48.708;9.394;2022-09-09T08:38:32;3.03;;;0.83;;
15848;SDS011;8024;48.708;9.394;2022-09-09T08:41:03;1.63;;;0.67;;
15848;SDS011;8024;48.708;9.394;2022-09-09T08:43:39;3.70;;;0.60;;
15848;SDS011;8024;48.708;9.394;2022-09-09T08:46:09;2.43;;;0.53;;
15848;SDS011;8024;48.708;9.394;2022-09-09T08:48:44;1.80;;;0.70;;
15848;SDS011;8024;48.708;9.394;2022-09-09T08:51:17;3.43;;;0.60;;
15848;SDS011;8024;48.708;9.394;2022-09-09T08:53:46;2.43;;;0.63;;
15848;SDS011;8024;48.708;9.394;2022-09-09T08:56:21;3.33;;;0.60;;
15848;SDS011;8024;48.708;9.394;2022-09-09T08:58:50;2.30;;;0.60;;
15848;SDS011;8024;48.708;9.394;2022-09-09T09:01:32;3.67;;;0.53;;
15848;SDS011;8024;48.708;9.394;2022-09-09T09:04:07;3.57;;;0.60;;
15848;SDS011;8024;48.708;9.394;2022-09-09T09:06:44;1.33;;;0.30;;
15848;SDS011;8024;48.708;9.394;2022-09-09T09:09:21;9.83;;;1.23;;
15848;SDS011;8024;48.708;9.394;2022-09-09T09:11:53;3.43;;;0.77;;
15848;SDS011;8024;48.708;9.394;2022-09-09T09:14:26;1.53;;;0.50;;
15848;SDS011;8024;48.708;9.394;2022-09-09T09:16:56;2.07;;;0.73;;
15848;SDS011;8024;48.708;9.394;2022-09-09T09:19:26;7.73;;;0.90;;
15848;SDS011;8024;48.708;9.394;2022-09-09T09:21:57;2.03;;;0.50;;
15848;SDS011;8024;48.708;9.394;2022-09-09T09:24:30;2.53;;;0.40;;
15848;SDS011;8024;48.708;9.394;2022-09-09T09:27:12;1.80;;;0.57;;
15848;SDS011;8024;48.708;9.394;2022-09-09T09:29:40;2.00;;;0.83;;
15848;SDS011;8024;48.708;9.394;2022-09-09T09:32:10;2.93;;;0.43;;
15848;SDS011;8024;48.708;9.394;2022-09-09T09:34:40;4.27;;;0.40;;
15848;SDS011;8024;48.708;9.394;2022-09-09T09:37:11;2.03;;;0.50;;
15848;SDS011;8024;48.708;9.394;2022-09-09T09:39:44;2.10;;;0.70;;
15848;SDS011;8024;48.708;9.394;2022-09-09T09:42:14;2.53;;;0.40;;
15848;SDS011;8024;48.708;9.394;2022-09-09T09:44:42;1.70;;;0.43;;
15848;SDS011;8024;48.708;9.394;2022-09-09T09:47:10;2.80;;;0.50;;
15848;SDS011;8024;48.708;9.394;2022-09-09T09:49:39;3.10;;;0.50;;
15848;SDS011;8024;48.708;9.394;2022-09-09T09:52:19;2.77;;;0.47;;
15848;SDS011;8024;48.708;9.394;2022-09-09T09:54:49;3.40;;;0.43;;
15848;SDS011;8024;48.708;9.394;2022-09-09T09:57:22;1.67;;;0.30;;
15848;SDS011;8024;48.708;9.394;2022-09-09T09:59:59;2.77;;;0.33;;
15848;SDS011;8024;48.708;9.394;2022-09-09T10:02:36;3.27;;;0.30;;
15848;SDS011;8024;48.708;9.394;2022-09-09T10:05:08;2.13;;;0.33;;
15848;SDS011;8024;48.708;9.394;2022-09-09T10:07:40;0.93;;;0.20;;
15848;SDS011;8024;48.708;9.394;2022-09-09T10:10:09;1.70;;;0.30;;
15848;SDS011;8024;48.708;9.394;2022-09-09T10:12:45;1.67;;;0.20;;
15848;SDS011;8024;48.708;9.394;2022-09-09T10:15:26;2.57;;;0.20;;
15848;SDS011;8024;48.708;9.394;2022-09-09T10:18:10;1.70;;;0.20;;
15848;SDS011;8024;48.708;9.394;2022-09-09T10:20:51;4.93;;;0.83;;
15848;SDS011;8024;48.708;9.394;2022-09-09T10:23:29;1.93;;;0.57;;
15848;SDS011;8024;48.708;9.394;2022-09-09T10:26:22;1.33;;;0.30;;
15848;SDS011;8024;48.708;9.394;2022-09-09T10:29:06;2.33;;;0.30;;
15848;SDS011;8024;48.708;9.394;2022-09-09T10:31:44;0.30;;;0.30;;
15848;SDS011;8024;48.708;9.394;2022-09-09T10:34:23;2.27;;;0.40;;
15848;SDS011;8024;48.708;9.394;2022-09-09T10:37:01;3.00;;;0.30;;
15848;SDS011;8024;48.708;9.394;2022-09-09T10:39:42;1.73;;;0.50;;
15848;SDS011;8024;48.708;9.394;2022-09-09T10:42:11;3.87;;;0.97;;
15848;SDS011;8024;48.708;9.394;2022-09-09T10:44:48;4.50;;;0.53;;
15848;SDS011;8024;48.708;9.394;2022-09-09T10:47:29;3.27;;;0.47;;
15848;SDS011;8024;48.708;9.394;2022-09-09T10:50:34;1.87;;;0.37;;
15848;SDS011;8024;48.708;9.394;2022-09-09T10:53:20;2.73;;;0.40;;
15848;SDS011;8024;48.708;9.394;2022-09-09T10:55:56;4.30;;;0.20;;
15848;SDS011;8024;48.708;9.394;2022-09-09T10:58:30;1.00;;;0.30;;
15848;SDS011;8024;48.708;9.394;2022-09-09T11:01:06;1.37;;;0.30;;
15848;SDS011;8024;48.708;9.394;2022-09-09T11:03:39;3.40;;;0.50;;
15848;SDS011;8024;48.708;9.394;2022-09-09T11:06:09;3.53;;;0.30;;
15848;SDS011;8024;48.708;9.394;2022-09-09T11:08:40;2.40;;;0.67;;
15848;SDS011;8024;48.708;9.394;2022-09-09T11:11:09;2.63;;;0.73;;
15848;SDS011;8024;48.708;9.394;2022-09-09T11:13:42;1.30;;;0.20;;
15848;SDS011;8024;48.708;9.394;2022-09-09T11:16:17;3.70;;;0.30;;
15848;SDS011;8024;48.708;9.394;2022-09-09T11:18:50;1.97;;;0.20;;
15848;SDS011;8024;48.708;9.394;2022-09-09T11:21:25;0.82;;;0.20;;
15848;SDS011;8024;48.708;9.394;2022-09-09T11:23:56;4.00;;;0.43;;
15848;SDS011;8024;48.708;9.394;2022-09-09T11:26:29;1.02;;;0.20;;
15848;SDS011;8024;48.708;9.394;2022-09-09T11:29:04;1.60;;;0.20;;
15848;SDS011;8024;48.708;9.394;2022-09-09T11:31:46;1.48;;;0.30;;
15848;SDS011;8024;48.708;9.394;2022-09-09T11:34:30;2.10;;;0.30;;
15848;SDS011;8024;48.708;9.394;2022-09-09T11:37:13;12.30;;;1.40;;
15848;SDS011;8024;48.708;9.394;2022-09-09T11:40:00;8.90;;;1.00;;
15848;SDS011;8024;48.708;9.394;2022-09-09T11:42:35;3.13;;;0.50;;
15848;SDS011;8024;48.708;9.394;2022-09-09T11:45:09;2.53;;;0.50;;
15848;SDS011;8024;48.708;9.394;2022-09-09T11:47:52;4.63;;;0.67;;
15848;SDS011;8024;48.708;9.394;2022-09-09T11:50:28;1.27;;;0.50;;
15848;SDS011;8024;48.708;9.394;2022-09-09T11:53:16;2.33;;;0.50;;
15848;SDS011;8024;48.708;9.394;2022-09-09T11:55:59;3.27;;;0.80;;
15848;SDS011;8024;48.708;9.394;2022-09-09T11:58:34;3.57;;;0.37;;
15848;SDS011;8024;48.708;9.394;2022-09-09T12:01:15;2.87;;;0.40;;
15848;SDS011;8024;48.708;9.394;2022-09-09T12:04:21;1.60;;;0.90;;
15848;SDS011;8024;48.708;9.394;2022-09-09T12:06:59;2.17;;;0.40;;
15848;SDS011;8024;48.708;9.394;2022-09-09T12:09:30;2.70;;;0.30;;
15848;SDS011;8024;48.708;9.394;2022-09-09T12:12:16;1.73;;;0.37;;
15848;SDS011;8024;48.708;9.394;2022-09-09T12:14:57;2.27;;;0.30;;
15848;SDS011;8024;48.708;9.394;2022-09-09T12:17:46;0.87;;;0.20;;
15848;SDS011;8024;48.708;9.394;2022-09-09T12:20:17;0.40;;;0.20;;
15848;SDS011;8024;48.708;9.394;2022-09-09T12:22:50;1.27;;;0.20;;
15848;SDS011;8024;48.708;9.394;2022-09-09T12:25:30;0.40;;;0.20;;
15848;SDS011;8024;48.708;9.394;2022-09-09T12:28:04;0.40;;;0.10;;
15848;SDS011;8024;48.708;9.394;2022-09-09T12:30:39;2.37;;;0.10;;
15848;SDS011;8024;48.708;9.394;2022-09-09T12:33:16;0.10;;;0.10;;
15848;SDS011;8024;48.708;9.394;2022-09-09T12:35:47;0.80;;;0.13;;
15848;SDS011;8024;48.708;9.394;2022-09-09T12:38:21;0.80;;;0.10;;
15848;SDS011;8024;48.708;9.394;2022-09-09T12:40:54;0.30;;;0.10;;
15848;SDS011;8024;48.708;9.394;2022-09-09T12:43:23;0.50;;;0.20;;
15848;SDS011;8024;48.708;9.394;2022-09-09T12:45:53;1.97;;;0.10;;
15848;SDS011;8024;48.708;9.394;2022-09-09T12:48:25;2.83;;;0.40;;
15848;SDS011;8024;48.708;9.394;2022-09-09T12:50:59;1.90;;;0.10;;
15848;SDS011;8024;48.708;9.394;2022-09-09T12:53:31;0.23;;;0.10;;
15848;SDS011;8024;48.708;9.394;2022-09-09T12:56:02;1.27;;;0.37;;
15848;SDS011;8024;48.708;9.394;2022-09-09T12:58:32;2.73;;;0.30;;
15848;SDS011;8024;48.708;9.394;2022-09-09T13:01:00;0.60;;;0.17;;
15848;SDS011;8024;48.708;9.394;2022-09-09T13:03:30;1.27;;;0.20;;
15848;SDS011;8024;48.708;9.394;2022-09-09T13:05:58;1.90;;;0.37;;
15848;SDS011;8024;48.708;9.394;2022-09-09T13:08:38;1.80;;;0.20;;
15848;SDS011;8024;48.708;9.394;2022-09-09T13:11:07;1.80;;;0.53;;
15848;SDS011;8024;48.708;9.394;2022-09-09T13:13:41;1.47;;;0.30;;
15848;SDS011;8024;48.708;9.394;2022-09-09T13:16:18;2.23;;;0.30;;
15848;SDS011;8024;48.708;9.394;2022-09-09T13:18:47;4.70;;;0.30;;
15848;SDS011;8024;48.708;9.394;2022-09-09T13:21:16;4.67;;;0.57;;
15848;SDS011;8024;48.708;9.394;2022-09-09T13:23:48;0.57;;;0.20;;
15848;SDS011;8024;48.708;9.394;2022-09-09T13:26:20;12.83;;;1.43;;
15848;SDS011;8024;48.708;9.394;2022-09-09T13:28:50;2.33;;;0.63;;
15848;SDS011;8024;48.708;9.394;2022-09-09T13:31:19;1.33;;;0.23;;
15848;SDS011;8024;48.708;9.394;2022-09-09T13:33:49;0.93;;;0.30;;
15848;SDS011;8024;48.708;9.394;2022-09-09T13:36:26;2.80;;;0.30;;
15848;SDS011;8024;48.708;9.394;2022-09-09T13:38:56;4.23;;;0.20;;
15848;SDS011;8024;48.708;9.394;2022-09-09T13:41:25;1.00;;;0.23;;
15848;SDS011;8024;48.708;9.394;2022-09-09T13:43:56;1.90;;;0.20;;
15848;SDS011;8024;48.708;9.394;2022-09-09T13:46:25;1.43;;;0.20;;
15848;SDS011;8024;48.708;9.394;2022-09-09T13:49:00;0.77;;;0.10;;
15848;SDS011;8024;48.708;9.394;2022-09-09T13:51:32;1.43;;;0.30;;
15848;SDS011;8024;48.708;9.394;2022-09-09T13:54:02;1.13;;;0.30;;
15848;SDS011;8024;48.708;9.394;2022-09-09T13:56:31;1.53;;;0.30;;
15848;SDS011;8024;48.708;9.394;2022-09-09T13:58:58;2.20;;;0.20;;
15848;SDS011;8024;48.708;9.394;2022-09-09T14:01:25;2.27;;;0.20;;
15848;SDS011;8024;48.708;9.394;2022-09-09T14:03:53;1.43;;;0.20;;
15848;SDS011;8024;48.708;9.394;2022-09-09T14:06:20;1.30;;;0.27;;
15848;SDS011;8024;48.708;9.394;2022-09-09T14:08:50;1.73;;;0.20;;
15848;SDS011;8024;48.708;9.394;2022-09-09T14:11:19;1.63;;;0.20;;
15848;SDS011;8024;48.708;9.394;2022-09-09T14:13:47;1.63;;;0.20;;
15848;SDS011;8024;48.708;9.394;2022-09-09T14:16:15;1.57;;;0.73;;
15848;SDS011;8024;48.708;9.394;2022-09-09T14:18:42;2.28;;;0.20;;
15848;SDS011;8024;48.708;9.394;2022-09-09T14:21:10;1.50;;;0.22;;
15848;SDS011;8024;48.708;9.394;2022-09-09T14:23:38;1.57;;;0.20;;
15848;SDS011;8024;48.708;9.394;2022-09-09T14:26:07;1.60;;;0.33;;
15848;SDS011;8024;48.708;9.394;2022-09-09T14:28:34;1.73;;;0.20;;
15848;SDS011;8024;48.708;9.394;2022-09-09T14:31:03;1.27;;;0.37;;
15848;SDS011;8024;48.708;9.394;2022-09-09T14:33:31;1.17;;;0.20;;
15848;SDS011;8024;48.708;9.394;2022-09-09T14:35:59;1.03;;;0.20;;
15848;SDS011;8024;48.708;9.394;2022-09-09T14:38:28;2.10;;;0.27;;
15848;SDS011;8024;48.708;9.394;2022-09-09T14:40:56;0.30;;;0.20;;
15848;SDS011;8024;48.708;9.394;2022-09-09T14:43:25;1.50;;;0.20;;
15848;SDS011;8024;48.708;9.394;2022-09-09T14:45:53;1.47;;;0.20;;
15848;SDS011;8024;48.708;9.394;2022-09-09T14:48:20;1.10;;;0.27;;
15848;SDS011;8024;48.708;9.394;2022-09-09T14:50:47;1.03;;;0.20;;
15848;SDS011;8024;48.708;9.394;2022-09-09T14:53:16;1.50;;;0.40;;
15848;SDS011;8024;48.708;9.394;2022-09-09T14:55:43;1.52;;;0.30;;
15848;SDS011;8024;48.708;9.394;2022-09-09T14:58:11;1.53;;;0.10;;
15848;SDS011;8024;48.708;9.394;2022-09-09T15:00:40;1.73;;;0.30;;
15848;SDS011;8024;48.708;9.394;2022-09-09T15:03:08;1.83;;;0.20;;
15848;SDS011;8024;48.708;9.394;2022-09-09T15:05:36;0.10;;;0.10;;
15848;SDS011;8024;48.708;9.394;2022-09-09T15:08:03;0.33;;;0.10;;
15848;SDS011;8024;48.708;9.394;2022-09-09T15:10:30;1.17;;;0.30;;
15848;SDS011;8024;48.708;9.394;2022-09-09T15:12:58;0.98;;;0.20;;
15848;SDS011;8024;48.708;9.394;2022-09-09T15:15:25;1.10;;;0.20;;
15848;SDS011;8024;48.708;9.394;2022-09-09T15:17:54;2.80;;;0.20;;
15848;SDS011;8024;48.708;9.394;2022-09-09T15:20:22;1.80;;;0.40;;
15848;SDS011;8024;48.708;9.394;2022-09-09T15:22:49;1.20;;;0.13;;
15848;SDS011;8024;48.708;9.394;2022-09-09T15:25:17;0.67;;;0.20;;